Ana Sayfa
METAR-TAF:

METAR-TAF

Havaalanları :

Nouakchott, Moritanya

Enlem: 18-18-36N, Boylam: 015-58-11W, yükseklik: 3 m

Güncel hava durumu gözlemi

Rapor saat 22:30 UTC de 36 dakika önce yapıldı.
Rüzgar kuzeydan 10 kt
Sıcaklık 26°C
Nem 58%
Basınç 1013 hPa
Görüş mesafesi 10 km veya daha fazla
1500 m altında bulut yok ve kümülonimbus yok

METAR: GQNO 172230Z 36010KT CAVOK 26/17 Q1013 NOSIG

Saat: 23:06 (23:06 UTC)

Tahmin

Rapor saat 11:00 UTC de 12 saat ve 6 dakika önce yapıldı.
Ayın 17'si saat 12 UTC'den ayın 18'si saat 18 UTC'ye kadar geçerli Tahmin
Rüzgar kuzey/kuzeybatıdan 12 kt
Görüş mesafesi: 7000 m

TAF: GQNO 171100Z 1712/1818 34012KT 7000 NSC

4.000'den fazla havaalanı için hava durumu gözlemleri ve tahminleri (METAR ve TAF raporları).

Kullanılabilir istasyonlar harita üzerinde sarı ve kırmızı noktalarla gösterilir.

İstasyonun adını görmek için fareyi noktanın üzerinde gezdirin.

Sonrasında hava gözlem ve tahminlerini görmek için tıklayın.

Haritayı değiştirmek için: yaklaştırmak için siyah artı işaretli yeşil düğmeye ve uzaklaştırmak için de eksi işaretli düğmeye hızla tıklayın; bitişik haritalar için yeşil okları kullanın.


METAR-TAF: